Data for 03/10/2008

Time Sea-Level Adjusted Pressure Absolute Pressure Temperature Relative Humidity Dew Point   
(mb) (inHg) (mb) (inHg) (C) (F) (%) (C) (F)
00:05 1023 30.21 852 25.16 1.6 34.9 48 -8.2 17.2
00:10 1023 30.21 852 25.16 1.4 34.6 49 -8.2 17.2
00:15 1023 30.21 852 25.16 1.3 34.3 50 -8.1 17.4
00:20 1023 30.21 852 25.16 1.1 34 50 -8.1 17.4
00:25 1023 30.21 852 25.16 1.1 34 51 -8 17.6
00:30 1023 30.21 853 25.19 1.1 34 51 -8 17.6
00:35 1023 30.21 853 25.19 1 33.9 51 -8 17.6
00:40 1023 30.21 853 25.19 1 33.7 51 -8.1 17.5
00:45 1023 30.21 853 25.19 0.8 33.5 51 -8.1 17.4
00:50 1023 30.21 853 25.19 0.6 33.1 52 -8.2 17.2
00:55 1023 30.21 853 25.19 0.5 32.9 52 -8.2 17.2
01:00 1023 30.21 853 25.19 0.3 32.6 53 -8.2 17.3
01:05 1023 30.21 853 25.19 0.3 32.5 53 -8.2 17.3
01:10 1023 30.21 853 25.19 0.2 32.4 54 -8.1 17.4
01:15 1023 30.21 853 25.19 0.1 32.2 54 -8.1 17.4
01:20 1023 30.21 853 25.19 -0 31.9 55 -8.1 17.5
01:25 1023 30.21 853 25.19 -0 32 55 -7.9 17.7
01:30 1023 30.21 853 25.19 0.1 32.1 55 -7.9 17.7
01:35 1024 30.24 853 25.19 -0.3 31.4 56 -8 17.5
01:40 1024 30.24 853 25.19 -0.7 30.8 58 -7.8 17.9
01:45 1024 30.24 853 25.19 -0.8 30.6 59 -7.8 17.9
01:50 1024 30.24 853 25.19 -0.6 30.9 58 -7.8 18
01:55 1024 30.24 853 25.19 -0.4 31.3 58 -7.7 18.1
02:00 1024 30.24 853 25.19 -0.3 31.4 57 -7.7 18.1
02:05 1024 30.24 853 25.19 -0.2 31.6 57 -7.8 18
02:10 1024 30.24 853 25.19 -0.2 31.6 57 -7.7 18.1
02:15 1024 30.24 853 25.19 -0.2 31.6 57 -7.8 17.9
02:20 1024 30.24 853 25.19 -0.6 30.8 57 -8.2 17.3
02:25 1024 30.24 853 25.19 -1.2 29.9 58 -8.4 16.8
02:30 1024 30.24 853 25.19 -1.5 29.3 59 -8.6 16.6
02:35 1024 30.24 853 25.19 -1.7 29 59 -8.7 16.4
02:40 1024 30.24 854 25.22 -1.7 28.9 59 -8.7 16.3
02:45 1024 30.24 854 25.22 -1.9 28.6 59 -8.9 15.9
02:50 1024 30.24 854 25.22 -1.8 28.8 58 -9 15.9
02:55 1025 30.27 854 25.22 -1.8 28.8 58 -9.1 15.7
03:00 1025 30.27 854 25.22 -1.9 28.5 58 -9.2 15.4
03:05 1025 30.27 854 25.22 -2.2 28 58 -9.3 15.3
03:10 1025 30.27 854 25.22 -2.3 27.9 58 -9.5 15
03:15 1025 30.27 854 25.22 -2.4 27.6 59 -9.5 14.9
03:20 1025 30.27 854 25.22 -2.5 27.5 59 -9.6 14.8
03:25 1025 30.27 854 25.22 -2.5 27.4 59 -9.5 14.9
03:30 1024 30.24 854 25.22 -2.6 27.3 59 -9.5 15
03:35 1024 30.24 854 25.22 -2.2 28.1 58 -9.4 15
03:40 1024 30.24 854 25.22 -2.1 28.3 57 -9.5 14.9
03:45 1024 30.24 854 25.22 -2.1 28.2 57 -9.6 14.7
03:50 1024 30.24 854 25.22 -2 28.4 56 -9.6 14.6
03:55 1024 30.24 854 25.22 -2.3 27.8 57 -9.7 14.5
04:00 1024 30.24 854 25.22 -2.9 26.8 58 -10 14
04:05 1024 30.24 854 25.22 -2.9 26.8 57 -10.3 13.5
04:10 1024 30.24 853 25.19 -2.7 27.1 57 -10.1 13.9
04:15 1024 30.24 853 25.19 -2.8 27 56 -10.3 13.5
04:20 1024 30.24 853 25.19 -2.4 27.7 56 -10 13.9
04:25 1024 30.24 853 25.19 -2.9 26.8 58 -10.1 13.8
04:30 1024 30.24 853 25.19 -3.3 26 59 -10.3 13.5
04:35 1024 30.24 853 25.19 -3.6 25.6 60 -10.3 13.5
04:40 1024 30.24 853 25.19 -3.6 25.5 61 -10.1 13.8
04:45 1024 30.24 853 25.19 -3.6 25.5 61 -10.1 13.9
04:50 1024 30.24 853 25.19 -3.5 25.8 61 -10 13.9
04:55 1024 30.24 853 25.19 -3.1 26.4 60 -9.9 14.2
05:00 1024 30.24 853 25.19 -3.1 26.5 60 -9.9 14.2
05:05 1024 30.24 853 25.19 -3.2 26.3 60 -10 14.1
05:10 1024 30.24 853 25.19 -3.1 26.4 59 -10 14
05:15 1024 30.24 853 25.19 -3.1 26.4 59 -10 14
05:20 1024 30.24 853 25.19 -3.1 26.4 59 -10.1 13.9
05:25 1024 30.24 853 25.19 -3.2 26.3 60 -10 14.1
05:30 1024 30.24 853 25.19 -3.1 26.4 60 -9.9 14.1
05:35 1024 30.24 853 25.19 -2.8 27 58 -9.9 14.2
05:40 1024 30.24 853 25.19 -2.4 27.6 58 -9.7 14.5
05:45 1024 30.24 853 25.19 -2.1 28.1 55 -10 14.1
05:50 1024 30.24 853 25.19 -2 28.3 54 -10.1 13.9
05:55 1024 30.24 853 25.19 -1.7 28.9 52 -10.3 13.5
06:00 1024 30.24 853 25.19 -1.4 29.4 53 -9.8 14.4
06:05 1024 30.24 854 25.22 -1.5 29.3 52 -10.2 13.7
06:10 1024 30.24 853 25.19 -2 28.4 53 -10.4 13.3
06:15 1024 30.24 854 25.22 -2.5 27.6 54 -10.5 13.1
06:20 1024 30.24 854 25.22 -2.5 27.4 55 -10.5 13.2
06:25 1024 30.24 854 25.22 -2.4 27.7 55 -10.3 13.5
06:30 1024 30.24 854 25.22 -2.3 27.8 54 -10.4 13.4
06:35 1024 30.24 854 25.22 -2.3 27.8 55 -10.2 13.6
06:40 1025 30.27 854 25.22 -2.4 27.7 55 -10.3 13.4
06:45 1024 30.24 854 25.22 -2.6 27.3 55 -10.5 13.2
06:50 1024 30.24 854 25.22 -2.8 27 56 -10.4 13.2
06:55 1025 30.27 854 25.22 -3 26.6 56 -10.6 13
07:00 1025 30.27 854 25.22 -3.2 26.3 57 -10.5 13
07:05 1025 30.27 854 25.22 -3.5 25.7 58 -10.7 12.7
07:10 1025 30.27 854 25.22 -3.7 25.3 58 -10.8 12.5
07:15 1025 30.27 854 25.22 -3.6 25.5 57 -10.8 12.5
07:20 1025 30.27 854 25.22 -3.4 25.8 57 -10.7 12.7
07:25 1025 30.27 854 25.22 -3.4 25.9 57 -10.8 12.6
07:30 1025 30.27 854 25.22 -3.2 26.3 57 -10.6 12.8
07:35 1025 30.27 854 25.22 -3 26.7 56 -10.5 13.1
07:40 1025 30.27 854 25.22 -3.1 26.5 57 -10.5 13.2
07:45 1025 30.27 854 25.22 -3.1 26.4 56 -10.6 12.9
07:50 1025 30.27 854 25.22 -2.8 27 54 -10.8 12.5
07:55 1025 30.27 854 25.22 -2.6 27.4 53 -10.9 12.4
08:00 1025 30.27 854 25.22 -2.8 26.9 54 -10.8 12.6
08:05 1025 30.27 854 25.22 -3.1 26.4 55 -10.9 12.4
08:10 1025 30.27 854 25.22 -3.3 26 56 -10.9 12.4
08:15 1025 30.27 855 25.25 -3.3 26 56 -11 12.2
08:20 1025 30.27 855 25.25 -3.1 26.5 55 -10.9 12.4
08:25 1025 30.27 854 25.22 -2.5 27.4 53 -11 12.3
08:30 1025 30.27 854 25.22 -2.3 27.9 52 -10.9 12.3
08:35 1025 30.27 854 25.22 -2.4 27.7 53 -10.7 12.7
08:40 1025 30.27 854 25.22 -2.5 27.5 54 -10.7 12.8
08:45 1025 30.27 855 25.25 -2.5 27.5 55 -10.5 13.2
08:50 1025 30.27 854 25.22 -2.6 27.3 54 -10.6 12.9
08:55 1025 30.27 854 25.22 -2.5 27.4 54 -10.6 13
09:00 1025 30.27 854 25.22 -2.7 27.2 55 -10.6 12.9
09:05 1025 30.27 854 25.22 -2.4 27.7 54 -10.4 13.2
09:10 1025 30.27 855 25.25 -2 28.5 53 -10.4 13.4
09:15 1025 30.27 855 25.25 -1.8 28.8 53 -10 14
09:20 1025 30.27 855 25.25 -1.7 28.9 53 -10.1 13.9
09:25 1025 30.27 855 25.25 -1.3 29.6 51 -10.1 13.8
09:30 1026 30.3 855 25.25 -0.8 30.6 51 -9.8 14.4
09:35 1026 30.3 855 25.25 -0.4 31.4 50 -9.5 14.9
09:40 1026 30.3 855 25.25 0.2 32.4 48 -9.5 14.9
09:45 1026 30.3 855 25.25 1 33.7 45 -9.6 14.7
09:50 1026 30.3 855 25.25 1.3 34.3 44 -9.7 14.5
09:55 1026 30.3 855 25.25 1.5 34.6 42 -10 14.1
10:00 1026 30.3 855 25.25 1.8 35.2 42 -9.9 14.2
10:05 1026 30.3 855 25.25 2.5 36.5 40 -10 14.1
10:10 1026 30.3 855 25.25 2.9 37.3 37 -10.3 13.4
10:15 1026 30.3 855 25.25 3 37.4 36 -10.5 13.1
10:20 1026 30.3 855 25.25 3.3 38 36 -10.5 13.2
10:25 1026 30.3 855 25.25 3.8 38.8 35 -10.3 13.4
10:30 1026 30.3 855 25.25 4.2 39.6 35 -9.9 14.1
10:35 1026 30.3 855 25.25 3.9 39.1 35 -10.2 13.7
10:40 1025 30.27 855 25.25 4.1 39.3 35 -10 14.1
10:45 1025 30.27 855 25.25 4.7 40.5 34 -9.7 14.6
10:50 1025 30.27 855 25.25 4.7 40.4 34 -9.7 14.5
10:55 1025 30.27 855 25.25 4.3 39.7 35 -10 13.9
11:00 1025 30.27 855 25.25 4.5 40 34 -10 14.1
11:05 1025 30.27 855 25.25 5.4 41.7 33 -9.5 15
11:10 1025 30.27 855 25.25 6.1 43.1 33 -9.1 15.6
11:15 1025 30.27 855 25.25 6 42.8 32 -9.5 14.9
11:20 1025 30.27 855 25.25 6 42.7 31 -9.9 14.2
11:25 1025 30.27 855 25.25 6 42.9 31 -10 14
11:30 1025 30.27 855 25.25 6.1 42.9 31 -9.9 14.2
11:35 1025 30.27 855 25.25 5.3 41.5 32 -10 13.9
11:40 1025 30.27 855 25.25 5.7 42.2 32 -9.9 14.3
11:45 1025 30.27 855 25.25 6.2 43.1 30 -10.2 13.7
11:50 1025 30.27 855 25.25 6.4 43.6 30 -9.9 14.2
11:55 1025 30.27 854 25.22 7 44.6 29 -10 13.9
12:00 1025 30.27 854 25.22 6.5 43.6 29 -10.2 13.7
12:05 1025 30.27 854 25.22 6.9 44.5 28 -10.1 13.7
12:10 1025 30.27 854 25.22 7.2 45 27 -10.4 13.3
12:15 1025 30.27 854 25.22 7 44.5 28 -10.2 13.7
12:20 1025 30.27 854 25.22 8.1 46.7 26 -10.4 13.4
12:25 1025 30.27 854 25.22 7 44.6 30 -9.6 14.8
12:30 1025 30.27 854 25.22 7.5 45.5 30 -9 15.8
12:35 1025 30.27 854 25.22 8.6 47.5 30 -8.2 17.2
12:40 1025 30.27 854 25.22 8.5 47.2 30 -8.2 17.2
12:45 1025 30.27 854 25.22 8 46.3 31 -8.2 17.2
12:50 1025 30.27 854 25.22 8.6 47.5 31 -7.7 18.2
12:55 1025 30.27 854 25.22 8.8 47.9 31 -7.6 18.3
13:00 1025 30.27 854 25.22 9 48.1 31 -7.1 19.1
13:05 1025 30.27 854 25.22 9.5 49.1 29 -7.5 18.6
13:10 1025 30.27 854 25.22 9.4 48.9 31 -6.8 19.8
13:15 1025 30.27 854 25.22 8.6 47.5 35 -6 21.1
13:20 1025 30.27 854 25.22 7.4 45.3 38 -5.9 21.4
13:25 1025 30.27 854 25.22 7.7 45.9 33 -7.4 18.6
13:30 1025 30.27 854 25.22 7.1 44.7 34 -7.6 18.2
13:35 1025 30.27 854 25.22 7 44.5 39 -6 21.2
13:40 1025 30.27 854 25.22 7.3 45.1 40 -5.3 22.5
13:45 1025 30.27 854 25.22 7.4 45.3 40 -5.2 22.7
13:50 1025 30.27 854 25.22 7.8 46.1 38 -5.6 21.9
13:55 1025 30.27 854 25.22 7.5 45.5 39 -5.7 21.7
14:00 1025 30.27 854 25.22 7.9 46.2 37 -5.9 21.4
14:05 1024 30.24 854 25.22 8 46.3 37 -5.7 21.7
14:10 1024 30.24 854 25.22 8 46.5 36 -6.2 20.8
14:15 1024 30.24 853 25.19 8.8 47.8 33 -6.6 20.2
14:20 1024 30.24 853 25.19 9.9 49.8 32 -5.9 21.4
14:25 1024 30.24 853 25.19 10.8 51.5 31 -5.8 21.6
14:30 1024 30.24 853 25.19 10.4 50.8 29 -6.7 20
14:35 1024 30.24 853 25.19 10.4 50.7 27 -7.7 18.2
14:40 1024 30.24 853 25.19 9.8 49.7 26 -8.8 16.2
14:45 1024 30.24 853 25.19 9.9 49.8 26 -8.9 16
14:50 1024 30.24 853 25.19 10 49.9 27 -8.3 17
14:55 1024 30.24 853 25.19 10.4 50.6 26 -8.1 17.4
15:00 1024 30.24 853 25.19 10.9 51.5 26 -7.9 17.7
15:05 1024 30.24 853 25.19 10.5 50.8 26 -8.4 16.9
15:10 1023 30.21 853 25.19 11.3 52.4 24 -8.3 17
15:15 1023 30.21 853 25.19 11.4 52.5 25 -8 17.6
15:20 1023 30.21 853 25.19 10.5 50.9 26 -8.4 16.9
15:25 1023 30.21 852 25.16 10.6 51.1 25 -8.5 16.7
15:30 1023 30.21 852 25.16 10.4 50.6 26 -8.2 17.2
15:35 1023 30.21 852 25.16 10.3 50.6 32 -5.5 22.2
15:40 1023 30.21 852 25.16 9.9 49.8 34 -5.3 22.5
15:45 1023 30.21 852 25.16 9.6 49.3 34 -5.6 22
15:50 1023 30.21 852 25.16 9.7 49.4 32 -6.1 21
15:55 1023 30.21 852 25.16 9.8 49.6 31 -6.4 20.5
16:00 1023 30.21 852 25.16 10.5 50.9 31 -5.9 21.3
16:05 1023 30.21 852 25.16 10.6 51 31 -5.9 21.3
16:10 1023 30.21 852 25.16 10.3 50.6 31 -6.1 21
16:15 1023 30.21 852 25.16 10.9 51.6 31 -5.7 21.7
16:20 1023 30.21 852 25.16 10.6 51.1 32 -5.5 22.1
16:25 1023 30.21 852 25.16 10.4 50.7 33 -5.2 22.6
16:30 1023 30.21 852 25.16 10.3 50.5 33 -5.2 22.7
16:35 1023 30.21 852 25.16 9.8 49.7 34 -5.3 22.5
16:40 1023 30.21 852 25.16 9.7 49.4 34 -5.4 22.3
16:45 1023 30.21 852 25.16 9.3 48.7 34 -5.8 21.6
16:50 1023 30.21 852 25.16 9.4 48.9 32 -6.6 20.2
16:55 1023 30.21 852 25.16 10.1 50.1 31 -6.3 20.6
17:00 1023 30.21 852 25.16 10.6 51 31 -6.1 21.1
17:05 1023 30.21 852 25.16 10.5 50.9 33 -5.1 22.8
17:10 1023 30.21 852 25.16 10.2 50.3 34 -5 22.9
17:15 1022 30.18 852 25.16 10.2 50.3 34 -5.2 22.7
17:20 1022 30.18 852 25.16 10.4 50.7 33 -5.3 22.5
17:25 1022 30.18 852 25.16 10.6 51.1 33 -4.9 23.2
17:30 1022 30.18 852 25.16 11.1 52 30 -5.7 21.7
17:35 1022 30.18 852 25.16 10.7 51.2 32 -5.2 22.6
17:40 1022 30.18 852 25.16 10.7 51.3 32 -5.5 22.2
17:45 1022 30.18 852 25.16 10.5 51 32 -5.4 22.3
17:50 1022 30.18 851 25.13 10.3 50.6 33 -5.4 22.3
17:55 1022 30.18 851 25.13 10.2 50.4 32 -5.6 22
18:00 1022 30.18 851 25.13 9.8 49.7 33 -5.5 22.1
18:05 1022 30.18 851 25.13 10.1 50.3 32 -5.8 21.5
18:10 1022 30.18 851 25.13 10.8 51.4 32 -5.4 22.2
18:15 1022 30.18 851 25.13 11.1 52 30 -5.6 21.9
18:20 1022 30.18 851 25.13 11.1 52 30 -5.9 21.4
18:25 1022 30.18 851 25.13 10.3 50.6 33 -5.3 22.4
18:30 1022 30.18 851 25.13 10.2 50.4 32 -5.9 21.5
18:35 1022 30.18 851 25.13 9.8 49.7 33 -5.6 21.8
18:40 1022 30.18 851 25.13 9.6 49.3 34 -5.6 22
18:45 1022 30.18 851 25.13 9.3 48.7 34 -5.6 21.8
18:50 1022 30.18 851 25.13 9.6 49.2 33 -6 21.3
18:55 1022 30.18 851 25.13 9.3 48.7 34 -5.9 21.4
19:00 1022 30.18 851 25.13 8.9 48 34 -6 21.2
19:05 1022 30.18 851 25.13 8.6 47.5 35 -6.1 21.1
19:10 1022 30.18 851 25.13 8.5 47.4 35 -6.2 20.9
19:15 1022 30.18 851 25.13 8.4 47.2 34 -6.5 20.3
19:20 1022 30.18 851 25.13 8.3 47 34 -6.5 20.3
19:25 1022 30.18 851 25.13 8.2 46.7 35 -6.3 20.7
19:30 1022 30.18 851 25.13 8 46.3 36 -6.2 20.9
19:35 1022 30.18 851 25.13 7.8 46 38 -5.7 21.8
19:40 1022 30.18 851 25.13 7.3 45.2 41 -5 23
19:45 1022 30.18 851 25.13 7 44.5 43 -4.8 23.3
19:50 1022 30.18 851 25.13 6.9 44.3 42 -5.3 22.5
19:55 1022 30.18 851 25.13 7.2 44.9 40 -5.7 21.8
20:00 1022 30.18 851 25.13 7.2 44.9 42 -4.8 23.4
20:05 1022 30.18 851 25.13 6.8 44.2 45 -4.3 24.3
20:10 1022 30.18 851 25.13 6.1 43 47 -4.3 24.2
20:15 1022 30.18 851 25.13 5.8 42.5 48 -4.3 24.2
20:20 1022 30.18 851 25.13 5.7 42.3 49 -4.1 24.6
20:25 1022 30.18 851 25.13 5.5 42 50 -3.9 24.9
20:30 1022 30.18 851 25.13 5.2 41.4 53 -3.7 25.4
20:35 1022 30.18 851 25.13 4.9 40.8 54 -3.6 25.5
20:40 1022 30.18 851 25.13 4.7 40.4 55 -3.5 25.6
20:45 1022 30.18 851 25.13 4.7 40.4 56 -3.4 25.9
20:50 1022 30.18 851 25.13 4.7 40.5 56 -3.3 26.1
20:55 1022 30.18 851 25.13 4.7 40.5 56 -3.3 26
21:00 1022 30.18 851 25.13 4.6 40.3 57 -3.3 26
21:05 1022 30.18 851 25.13 4.3 39.8 58 -3.3 26
21:10 1022 30.18 851 25.13 4.1 39.4 58 -3.5 25.8
21:15 1022 30.18 851 25.13 4.4 39.9 56 -3.7 25.3
21:20 1022 30.18 851 25.13 4.7 40.5 54 -3.8 25.2
21:25 1022 30.18 851 25.13 4.7 40.4 54 -3.8 25.1
21:30 1022 30.18 851 25.13 4.5 40.1 54 -3.9 24.9
21:35 1022 30.18 851 25.13 4.3 39.8 55 -3.9 25
21:40 1022 30.18 851 25.13 4.3 39.8 55 -4 24.9
21:45 1022 30.18 851 25.13 4.4 39.9 55 -3.9 25
21:50 1021 30.15 851 25.13 4.4 40 55 -3.9 25
21:55 1021 30.15 851 25.13 4.5 40.1 55 -3.8 25.1
22:00 1021 30.15 851 25.13 4.5 40.2 55 -3.8 25.1
22:05 1021 30.15 851 25.13 4.5 40.2 54 -3.8 25.1
22:10 1022 30.18 851 25.13 4.5 40.1 55 -3.7 25.4
22:15 1021 30.15 851 25.13 4.3 39.7 56 -3.8 25.1
22:20 1021 30.15 851 25.13 4.3 39.8 56 -3.8 25.2
22:25 1021 30.15 851 25.13 4 39.1 58 -3.6 25.6
22:30 1021 30.15 851 25.13 3.7 38.6 58 -3.8 25.1
22:35 1021 30.15 851 25.13 4.1 39.4 56 -3.8 25.2
22:40 1021 30.15 851 25.13 4.3 39.7 56 -3.7 25.3
22:45 1021 30.15 851 25.13 4.3 39.8 56 -3.7 25.3
22:50 1021 30.15 851 25.13 4.4 40 55 -3.7 25.3
22:55 1021 30.15 851 25.13 4.5 40.1 55 -3.8 25.2
23:00 1021 30.15 851 25.13 4.7 40.4 54 -3.8 25.2
23:05 1021 30.15 851 25.13 4.8 40.6 54 -3.8 25.1
23:10 1021 30.15 851 25.13 4.7 40.4 54 -3.8 25.2
23:15 1021 30.15 851 25.13 4.3 39.7 55 -3.9 25.1
23:20 1021 30.15 851 25.13 4.2 39.5 56 -3.9 24.9
23:25 1021 30.15 851 25.13 4.2 39.5 55 -4 24.9
23:30 1021 30.15 851 25.13 4.3 39.8 55 -3.9 25
23:35 1021 30.15 851 25.13 4.5 40.2 54 -3.9 25
23:40 1021 30.15 851 25.13 4.7 40.5 54 -3.8 25.1
23:45 1022 30.18 851 25.13 4.8 40.6 54 -3.8 25.1
23:50 1021 30.15 851 25.13 4.3 39.8 55 -3.8 25.1
23:55 1021 30.15 851 25.13 3.8 38.9 57 -3.9 24.9
24:00 1021 30.15 851 25.13 3.5 38.3 58 -4 24.8